Uralsk, Kazakhstan

6:14 PM AQTT on July 30, 2015 (GMT +0500)
Uralsk | | Change Station
CLOSE
Current Station
Airport
Location: Uralsk,
Elevation: 125 ft
Nearby Weather Stations

Elev 125 ft 51.15 °N, 51.54 °E | Updated 14 minutes ago

Mostly Cloudy
Mostly Cloudy
97 °F
Feels Like 97 °F
N
7
Wind Variable Wind from NW

Today
High -- | Low -- °F
--% Chance of Precip.
Yesterday
High -- | Low -- °F
Precip. -- in
5:55 AM 9:24 PM
Waxing Gibbous, 99% visible
Pressure 29.74 in
Visibility 6.2 miles
Clouds Scattered Clouds 5000 ft
Mostly Cloudy 11000 ft
Dew Point 48 °F
Humidity 19%
Rainfall 0.00 in
Snow Depth Not available.
UV 2 out of 12
Pollen Not available.
Air Quality Not available.
Flu Activity Not available.
METAR UARR 301300Z 31003MPS 270V340 9999 SCT050CB BKN110 36/09 Q1007 R22/CLRD70 NOSIG RMK QFE752/1003

More Conditions Fewer Conditions

Pressure 29.74 in
Visibility 6.2 miles
Clouds Scattered Clouds 5000 ft
Mostly Cloudy 11000 ft
Dew Point 48 °F
Humidity 19%
Rainfall 0.00 in
Snow Depth Not available.
UV 2 out of 12
Pollen Not available.
Air Quality Not available.
Flu Activity Not available.
METAR UARR 301300Z 31003MPS 270V340 9999 SCT050CB BKN110 36/09 Q1007 R22/CLRD70 NOSIG RMK QFE752/1003

More Conditions Fewer Conditions

10-Day Weather Forecast

×

Almanac

Astronomy

Jul. 30, 2015 Rise Set
Actual Time
Civil Twilight
Nautical Twilight
Astronomical Twilight
Moon
Length of Visible Light
Length of Day
Tomorrow will be .
, % of the Moon is Illuminated

Today's Extremes

Country Highs Country Lows

Community

WunderPhotos

Upload Photos

1,842,347 photos uploaded!

WunderBlogs® & News

Nearby

Air Quality

  Air Quality AQ Index Pollutant
Not available.

Snow Depth

Station Depth Elevation

Earthquake Activity

City Distance Mag. Time & Date
Minimum magnitude displayed is 2.5.

Coastal Water Temperatures

Place Temperature

Stations

Nearby Weather Stations

Station Location Temp. Windchill Dew Point Humidity Wind Precip. Elev Updated Type